createdAt,value
2022-10-14T00:02:50.738Z,44.63
2022-10-14T00:07:53.128Z,43.83
2022-10-14T00:12:55.546Z,42.83
2022-10-14T00:17:58.867Z,43.63
2022-10-14T00:23:01.733Z,41.87
2022-10-14T00:28:04.020Z,41.47
2022-10-14T00:33:06.312Z,40.50
2022-10-14T00:38:08.611Z,42.07
2022-10-14T00:43:14.256Z,41.43
2022-10-14T00:48:23.363Z,44.20
2022-10-14T00:53:26.675Z,44.57
2022-10-14T00:58:31.775Z,44.47
2022-10-14T01:03:34.582Z,47.13
2022-10-14T01:09:12.128Z,51.60
2022-10-14T01:14:36.047Z,46.90
2022-10-14T01:20:06.634Z,46.17
2022-10-14T01:25:32.628Z,41.07
2022-10-14T01:30:43.741Z,41.30
2022-10-14T01:36:22.055Z,42.23
2022-10-14T01:41:41.536Z,41.07
2022-10-14T01:46:48.798Z,43.23
2022-10-14T01:51:56.920Z,45.27
2022-10-14T01:57:02.910Z,45.07
2022-10-14T02:02:05.491Z,46.20
2022-10-14T02:07:21.803Z,45.77
2022-10-14T02:12:33.616Z,47.50
2022-10-14T02:17:45.498Z,48.13
2022-10-14T02:22:54.940Z,49.67
2022-10-14T02:28:00.359Z,48.23
2022-10-14T02:33:04.801Z,49.73
2022-10-14T02:38:08.371Z,46.73
2022-10-14T02:43:11.750Z,47.40
2022-10-14T02:48:14.399Z,43.63
2022-10-14T02:53:17.426Z,44.60
2022-10-14T02:58:21.283Z,41.07
2022-10-14T03:03:24.439Z,43.40
2022-10-14T03:08:30.675Z,40.20
2022-10-14T03:13:34.539Z,40.20
2022-10-14T03:18:37.314Z,40.27
2022-10-14T03:23:48.406Z,40.17
2022-10-14T03:28:51.052Z,41.70
2022-10-14T03:33:58.283Z,40.07
2022-10-14T03:39:02.316Z,39.80
2022-10-14T03:44:13.430Z,39.87
2022-10-14T03:49:22.560Z,47.63
2022-10-14T03:54:25.073Z,45.10
2022-10-14T03:59:27.598Z,46.83
2022-10-14T04:04:31.704Z,45.33
2022-10-14T04:09:35.410Z,46.00
2022-10-14T04:14:38.198Z,45.87
2022-10-14T04:19:41.479Z,47.50
2022-10-14T04:24:43.868Z,52.00
2022-10-14T04:29:46.281Z,50.77
2022-10-14T04:34:59.220Z,47.27
2022-10-14T04:40:05.882Z,46.03
2022-10-14T04:45:15.458Z,47.03
2022-10-14T04:50:22.943Z,46.33
2022-10-14T04:55:46.322Z,43.93
2022-10-14T05:00:49.003Z,44.93
2022-10-14T05:06:03.105Z,47.13
2022-10-14T05:11:05.890Z,48.70
2022-10-14T05:16:17.503Z,45.50
2022-10-14T05:21:20.367Z,46.03
2022-10-14T05:26:35.438Z,50.47
2022-10-14T05:31:42.023Z,57.17
2022-10-14T05:36:58.448Z,59.10
2022-10-14T05:42:02.930Z,58.90
2022-10-14T05:47:06.104Z,59.37
2022-10-14T05:52:08.550Z,60.83
2022-10-14T05:57:11.073Z,55.13
2022-10-14T06:02:13.485Z,53.90
2022-10-14T06:07:17.002Z,49.67
2022-10-14T06:12:19.631Z,67.03
2022-10-14T06:17:22.823Z,56.50
2022-10-14T06:22:25.424Z,58.57
2022-10-14T06:27:28.092Z,54.60
2022-10-14T06:32:30.401Z,50.67
2022-10-14T06:37:32.708Z,53.53
2022-10-14T06:42:35.162Z,43.93
2022-10-14T06:47:38.450Z,59.33
2022-10-14T06:52:40.776Z,47.30
2022-10-14T06:57:43.452Z,38.97
2022-10-14T07:02:45.819Z,37.67
2022-10-14T07:07:48.134Z,55.50
2022-10-14T07:12:54.512Z,47.67
2022-10-14T07:17:56.823Z,43.37
2022-10-14T07:22:59.242Z,42.50
2022-10-14T07:28:01.534Z,45.40
2022-10-14T07:33:04.431Z,43.80
2022-10-14T07:38:06.807Z,40.47
2022-10-14T07:43:09.100Z,38.43
2022-10-14T07:48:11.502Z,38.37
2022-10-14T07:53:13.804Z,34.97
2022-10-14T07:58:16.114Z,32.67
2022-10-14T08:03:20.262Z,33.23
2022-10-14T08:08:24.267Z,32.00
2022-10-14T08:13:26.594Z,34.87
2022-10-14T08:18:29.099Z,38.97
2022-10-14T08:23:33.043Z,40.87
2022-10-14T08:28:35.360Z,37.40
2022-10-14T08:33:37.708Z,38.60
2022-10-14T08:38:40.419Z,30.60
2022-10-14T08:44:16.486Z,35.30
2022-10-14T08:49:30.727Z,37.37
2022-10-14T08:54:45.099Z,32.67
2022-10-14T08:59:48.189Z,30.70
2022-10-14T09:04:50.610Z,33.90
2022-10-14T09:10:04.207Z,34.23
2022-10-14T09:15:11.929Z,33.47
2022-10-14T09:20:23.580Z,31.33
2022-10-14T09:25:25.956Z,31.10
2022-10-14T09:30:31.663Z,29.83
2022-10-14T09:35:39.257Z,32.10
2022-10-14T09:40:47.164Z,28.83
2022-10-14T09:46:00.014Z,28.47
2022-10-14T09:51:06.105Z,30.37
2022-10-14T09:56:10.563Z,31.43
2022-10-14T10:01:19.144Z,31.17
2022-10-14T10:06:26.974Z,26.43
2022-10-14T10:11:35.663Z,25.67
2022-10-14T10:16:38.025Z,24.20
2022-10-14T10:21:40.400Z,25.17
2022-10-14T10:26:42.732Z,23.87
2022-10-14T10:32:13.545Z,24.53
2022-10-14T10:37:21.363Z,21.70
2022-10-14T10:43:06.677Z,21.07
2022-10-14T10:48:34.934Z,22.97
2022-10-14T10:53:46.133Z,24.67
2022-10-14T10:58:51.227Z,24.00
2022-10-14T11:03:59.526Z,22.00
2022-10-14T11:09:25.082Z,23.27
2022-10-14T11:14:46.382Z,23.13
2022-10-14T11:19:58.903Z,23.30
2022-10-14T11:25:26.158Z,22.97
2022-10-14T11:30:49.533Z,24.07
2022-10-14T11:36:10.495Z,21.13
2022-10-14T11:41:46.948Z,22.97
2022-10-14T11:46:56.459Z,20.70
2022-10-14T11:52:04.447Z,19.43
2022-10-14T11:57:12.923Z,21.47
2022-10-14T12:02:26.832Z,22.40
2022-10-14T12:07:41.592Z,20.40
2022-10-14T12:12:47.679Z,23.47
2022-10-14T12:18:01.434Z,23.77
2022-10-14T12:23:07.909Z,25.83
2022-10-14T12:28:15.188Z,25.13
2022-10-14T12:33:22.365Z,23.27
2022-10-14T12:38:26.109Z,24.03
2022-10-14T12:43:29.964Z,22.27
2022-10-14T12:48:35.611Z,21.27
2022-10-14T12:53:40.721Z,23.50
2022-10-14T12:59:05.823Z,22.10
2022-10-14T13:04:20.796Z,21.90
2022-10-14T13:09:35.663Z,22.33
2022-10-14T13:15:01.289Z,22.33
2022-10-14T13:20:04.934Z,25.57
2022-10-14T13:25:14.459Z,25.37
2022-10-14T13:30:19.733Z,24.33
2022-10-14T13:35:42.672Z,24.03
2022-10-14T13:40:50.313Z,25.10
2022-10-14T13:46:21.994Z,25.93
2022-10-14T13:51:55.287Z,23.87
2022-10-14T14:02:31.110Z,23.33
2022-10-14T14:13:03.668Z,24.47
2022-10-14T14:18:23.733Z,37.03
2022-10-14T14:23:30.695Z,29.43
2022-10-14T14:28:36.191Z,31.80
2022-10-14T14:33:38.778Z,31.40
2022-10-14T14:38:55.457Z,35.07
2022-10-14T14:44:26.313Z,31.00
2022-10-14T14:49:31.645Z,30.10
2022-10-14T14:54:35.069Z,38.07
2022-10-14T14:59:40.346Z,33.50
2022-10-14T15:04:43.361Z,28.33
2022-10-14T15:09:53.173Z,32.47
2022-10-14T15:14:59.403Z,39.17
2022-10-14T15:20:30.038Z,42.80
2022-10-14T15:25:33.501Z,45.23
2022-10-14T15:30:41.730Z,34.50
2022-10-14T15:35:45.559Z,32.70
2022-10-14T15:40:49.134Z,37.90
2022-10-14T15:46:16.822Z,37.90
2022-10-14T15:51:21.047Z,39.73
2022-10-14T15:56:23.664Z,42.13
2022-10-14T16:01:26.072Z,54.50
2022-10-14T16:06:32.404Z,70.60
2022-10-14T16:11:37.401Z,74.73
2022-10-14T16:16:45.711Z,79.53
2022-10-14T16:21:49.877Z,143.87
2022-10-14T16:26:54.732Z,124.30
2022-10-14T16:31:57.062Z,101.20
2022-10-14T16:36:59.368Z,101.17
2022-10-14T16:42:02.758Z,104.43
2022-10-14T16:47:17.199Z,88.03
2022-10-14T16:52:20.536Z,73.53
2022-10-14T16:57:23.363Z,77.43
2022-10-14T17:02:31.867Z,74.00
2022-10-14T17:07:34.707Z,87.20
2022-10-14T17:12:37.773Z,86.97
2022-10-14T17:17:42.743Z,87.47
2022-10-14T17:22:45.007Z,86.20
2022-10-14T17:27:47.360Z,88.90
2022-10-14T17:32:49.719Z,86.83
2022-10-14T17:37:52.044Z,72.50
2022-10-14T17:42:54.356Z,73.10
2022-10-14T17:47:57.763Z,81.83
2022-10-14T17:53:00.950Z,79.73
2022-10-14T17:58:03.300Z,67.27
2022-10-14T18:03:08.418Z,75.77
2022-10-14T18:08:10.742Z,75.67
2022-10-14T18:13:13.212Z,69.80
2022-10-14T18:18:15.667Z,82.53
2022-10-14T18:23:18.010Z,75.13
2022-10-14T18:28:20.482Z,84.63
2022-10-14T18:33:23.028Z,106.43
2022-10-14T18:38:25.440Z,88.37
2022-10-14T18:43:28.406Z,109.33
2022-10-14T18:48:31.320Z,116.53
2022-10-14T18:53:34.307Z,121.27
2022-10-14T18:58:38.471Z,115.37
2022-10-14T19:03:41.656Z,111.27
2022-10-14T19:08:45.581Z,113.20
2022-10-14T19:13:56.554Z,105.60
2022-10-14T19:19:01.581Z,100.60
2022-10-14T19:24:04.852Z,88.17
2022-10-14T19:29:11.462Z,91.87
2022-10-14T19:34:15.888Z,90.80
2022-10-14T19:39:19.422Z,93.33
2022-10-14T19:44:21.913Z,93.03
2022-10-14T19:49:24.331Z,94.73
2022-10-14T19:54:26.762Z,91.87
2022-10-14T19:59:29.159Z,90.53
2022-10-14T20:04:31.507Z,84.50
2022-10-14T20:09:33.832Z,86.40
2022-10-14T20:14:36.385Z,76.00
2022-10-14T20:19:38.877Z,74.90
2022-10-14T20:24:41.224Z,71.87
2022-10-14T20:29:44.031Z,72.60
2022-10-14T20:34:46.908Z,73.67
2022-10-14T20:39:49.658Z,86.77
2022-10-14T20:44:52.027Z,82.20
2022-10-14T20:49:54.425Z,74.87
2022-10-14T20:54:56.927Z,71.67
2022-10-14T20:59:59.275Z,76.63
2022-10-14T21:05:01.675Z,74.43
2022-10-14T21:10:04.255Z,72.40
2022-10-14T21:15:07.230Z,78.23
2022-10-14T21:20:09.980Z,74.77
2022-10-14T21:25:13.007Z,90.47
2022-10-14T21:30:15.421Z,90.87
2022-10-14T21:35:17.714Z,90.50
2022-10-14T21:40:20.107Z,105.37
2022-10-14T21:45:22.534Z,107.47
2022-10-14T21:50:25.227Z,107.63
2022-10-14T21:55:27.643Z,96.87
2022-10-14T22:00:30.021Z,94.90
2022-10-14T22:05:34.509Z,91.60
2022-10-14T22:10:40.977Z,105.23
2022-10-14T22:15:43.816Z,109.77
2022-10-14T22:20:46.245Z,97.90
2022-10-14T22:25:48.598Z,96.00
2022-10-14T22:30:50.993Z,84.37
2022-10-14T22:35:53.346Z,88.33
2022-10-14T22:40:55.686Z,83.27
2022-10-14T22:46:08.697Z,85.60
2022-10-14T22:51:14.597Z,80.80
2022-10-14T22:56:22.510Z,79.87
2022-10-14T23:01:27.837Z,75.53
2022-10-14T23:06:31.393Z,76.70
2022-10-14T23:11:33.701Z,76.33
2022-10-14T23:16:36.486Z,74.27
2022-10-14T23:21:39.015Z,80.13
2022-10-14T23:26:41.390Z,79.93
2022-10-14T23:31:43.814Z,77.93
2022-10-14T23:36:46.499Z,76.43
2022-10-14T23:41:48.844Z,79.40
2022-10-14T23:46:51.276Z,78.90
2022-10-14T23:51:54.664Z,83.33
2022-10-14T23:56:57.092Z,85.10
